createdAt,value
2019-01-11T00:00:54.640Z,14.87
2019-01-11T00:03:23.206Z,12.83
2019-01-11T00:05:51.939Z,11.50
2019-01-11T00:08:20.523Z,14.37
2019-01-11T00:10:49.070Z,9.93
2019-01-11T00:13:17.682Z,10.60
2019-01-11T00:15:46.123Z,13.33
2019-01-11T00:18:14.558Z,12.67
2019-01-11T00:20:42.994Z,11.77
2019-01-11T00:23:11.579Z,11.53
2019-01-11T00:25:40.040Z,15.70
2019-01-11T00:28:27.807Z,16.17
2019-01-11T00:31:08.475Z,10.50
2019-01-11T00:33:49.596Z,12.83
2019-01-11T00:36:18.111Z,26.33
2019-01-11T00:38:46.544Z,15.60
2019-01-11T00:41:14.999Z,11.20
2019-01-11T00:43:43.441Z,12.80
2019-01-11T00:46:11.956Z,10.53
2019-01-11T00:48:40.384Z,12.30
2019-01-11T00:51:08.929Z,9.50
2019-01-11T00:53:37.427Z,13.47
2019-01-11T00:56:06.108Z,9.27
2019-01-11T00:58:53.898Z,11.73
2019-01-11T01:01:22.483Z,13.73
2019-01-11T01:04:10.280Z,12.80
2019-01-11T01:06:38.809Z,13.50
2019-01-11T01:09:08.274Z,17.20
2019-01-11T01:11:37.051Z,12.80
2019-01-11T01:14:05.647Z,12.17
2019-01-11T01:16:34.172Z,16.37
2019-01-11T01:19:02.694Z,11.20
2019-01-11T01:21:31.133Z,9.90
2019-01-11T01:23:59.589Z,13.13
2019-01-11T01:26:28.096Z,9.50
2019-01-11T01:28:56.539Z,11.33
2019-01-11T01:31:25.328Z,12.43
2019-01-11T01:33:53.818Z,11.43
2019-01-11T01:36:22.262Z,16.33
2019-01-11T01:38:50.774Z,11.03
2019-01-11T01:41:19.282Z,9.63
2019-01-11T01:43:47.800Z,18.43
2019-01-11T01:46:16.306Z,14.47
2019-01-11T01:48:45.364Z,19.60
2019-01-11T01:51:13.946Z,20.40
2019-01-11T01:53:42.381Z,10.33
2019-01-11T01:56:10.844Z,13.07
2019-01-11T01:58:39.310Z,13.47
2019-01-11T02:01:07.825Z,12.40
2019-01-11T02:03:36.266Z,20.20
2019-01-11T02:06:24.132Z,15.93
2019-01-11T02:08:52.573Z,18.27
2019-01-11T02:11:21.023Z,14.47
2019-01-11T02:13:49.454Z,19.70
2019-01-11T02:16:18.083Z,17.87
2019-01-11T02:18:46.587Z,19.70
2019-01-11T02:21:15.058Z,21.00
2019-01-11T02:23:43.568Z,21.00
2019-01-11T02:26:12.102Z,22.70
2019-01-11T02:28:40.543Z,20.10
2019-01-11T02:31:09.342Z,24.13
2019-01-11T02:33:37.785Z,23.67
2019-01-11T02:36:06.318Z,20.53
2019-01-11T02:38:34.758Z,17.97
2019-01-11T02:41:03.288Z,17.73
2019-01-11T02:43:31.791Z,21.23
2019-01-11T02:46:00.257Z,18.70
2019-01-11T02:48:28.707Z,20.57
2019-01-11T02:50:57.156Z,21.53
2019-01-11T02:53:25.611Z,19.13
2019-01-11T02:55:54.125Z,23.60
2019-01-11T02:58:22.585Z,26.27
2019-01-11T03:00:51.027Z,20.50
2019-01-11T03:03:38.821Z,25.43
2019-01-11T03:06:07.332Z,20.17
2019-01-11T03:08:55.133Z,19.70
2019-01-11T03:11:23.571Z,23.97
2019-01-11T03:13:52.035Z,21.00
2019-01-11T03:16:20.469Z,20.87
2019-01-11T03:18:48.942Z,25.27
2019-01-11T03:21:17.372Z,26.47
2019-01-11T03:23:46.103Z,27.17
2019-01-11T03:26:14.581Z,24.70
2019-01-11T03:28:43.038Z,32.63
2019-01-11T03:31:13.116Z,28.83
2019-01-11T03:33:41.655Z,29.47
2019-01-11T03:36:10.197Z,35.50
2019-01-11T03:38:38.632Z,30.50
2019-01-11T03:41:07.084Z,25.97
2019-01-11T03:43:35.524Z,33.77
2019-01-11T03:46:04.415Z,31.23
2019-01-11T03:48:33.223Z,30.00
2019-01-11T03:51:01.676Z,25.10
2019-01-11T03:53:30.158Z,35.23
2019-01-11T03:55:58.611Z,31.00
2019-01-11T03:58:27.123Z,34.20
2019-01-11T04:00:55.573Z,27.33
2019-01-11T04:03:24.011Z,28.50
2019-01-11T04:05:52.462Z,25.33
2019-01-11T04:08:22.942Z,27.33
2019-01-11T04:10:52.014Z,27.60
2019-01-11T04:13:20.595Z,29.90
2019-01-11T04:15:49.095Z,32.40
2019-01-11T04:18:19.199Z,27.73
2019-01-11T04:20:47.636Z,37.27
2019-01-11T04:23:16.130Z,28.30
2019-01-11T04:25:44.607Z,31.30
2019-01-11T04:28:13.083Z,32.50
2019-01-11T04:30:41.617Z,28.87
2019-01-11T04:33:10.156Z,28.67
2019-01-11T04:35:38.671Z,31.30
2019-01-11T04:38:07.179Z,28.60
2019-01-11T04:40:54.953Z,34.30
2019-01-11T04:43:23.404Z,39.27
2019-01-11T04:45:51.868Z,28.23
2019-01-11T04:48:20.326Z,37.07
2019-01-11T04:50:48.802Z,36.03
2019-01-11T04:53:17.439Z,26.77
2019-01-11T04:55:45.892Z,32.77
2019-01-11T04:58:14.364Z,29.67
2019-01-11T05:01:02.140Z,30.07
2019-01-11T05:03:31.946Z,34.70
2019-01-11T05:06:00.622Z,29.00
2019-01-11T05:08:29.062Z,34.77
2019-01-11T05:10:57.519Z,30.93
2019-01-11T05:13:30.443Z,34.80
2019-01-11T05:15:58.896Z,31.57
2019-01-11T05:18:27.347Z,36.13
2019-01-11T05:20:55.813Z,32.07
2019-01-11T05:23:24.244Z,29.87
2019-01-11T05:26:12.035Z,34.50
2019-01-11T05:28:40.496Z,28.53
2019-01-11T05:31:28.283Z,31.23
2019-01-11T05:33:56.741Z,29.13
2019-01-11T05:36:25.209Z,29.53
2019-01-11T05:38:53.648Z,29.13
2019-01-11T05:41:22.174Z,32.33
2019-01-11T05:43:50.626Z,29.90
2019-01-11T05:46:19.064Z,34.07
2019-01-11T05:48:47.521Z,37.87
2019-01-11T05:51:15.955Z,29.33
2019-01-11T05:53:44.681Z,33.97
2019-01-11T05:56:13.284Z,24.67
2019-01-11T05:58:43.390Z,26.27
2019-01-11T06:01:12.466Z,28.20
2019-01-11T06:04:00.256Z,30.80
2019-01-11T06:06:30.328Z,28.47
2019-01-11T06:08:58.775Z,33.90
2019-01-11T06:11:27.221Z,26.77
2019-01-11T06:13:55.741Z,30.93
2019-01-11T06:16:24.191Z,29.77
2019-01-11T06:18:52.656Z,32.20
2019-01-11T06:21:21.095Z,31.13
2019-01-11T06:23:49.551Z,28.37
2019-01-11T06:26:17.986Z,31.93
2019-01-11T06:28:46.429Z,31.90
2019-01-11T06:31:15.861Z,31.97
2019-01-11T06:34:05.082Z,28.37
2019-01-11T06:36:33.670Z,32.90
2019-01-11T06:39:02.198Z,33.40
2019-01-11T06:41:32.296Z,25.60
2019-01-11T06:44:00.736Z,29.00
2019-01-11T06:46:29.266Z,30.60
2019-01-11T06:48:57.717Z,25.03
2019-01-11T06:51:26.219Z,31.60
2019-01-11T06:53:54.665Z,27.97
2019-01-11T06:56:23.135Z,26.17
2019-01-11T06:59:10.977Z,32.63
2019-01-11T07:01:39.450Z,28.70
2019-01-11T07:04:07.940Z,28.30
2019-01-11T07:06:36.403Z,25.00
2019-01-11T07:09:07.376Z,24.27
2019-01-11T07:11:35.906Z,23.20
2019-01-11T07:14:04.755Z,26.87
2019-01-11T07:16:52.539Z,32.03
2019-01-11T07:19:21.069Z,33.03
2019-01-11T07:21:49.499Z,26.73
2019-01-11T07:24:17.955Z,35.10
2019-01-11T07:27:05.799Z,30.27
2019-01-11T07:29:34.276Z,31.53
2019-01-11T07:32:05.055Z,30.00
2019-01-11T07:34:33.533Z,30.50
2019-01-11T07:37:01.988Z,27.97
2019-01-11T07:39:30.677Z,28.37
2019-01-11T07:41:59.190Z,33.00
2019-01-11T07:44:27.787Z,33.93
2019-01-11T07:46:56.399Z,32.30
2019-01-11T07:49:24.940Z,31.30
2019-01-11T07:51:53.391Z,30.53
2019-01-11T07:54:21.858Z,26.83
2019-01-11T07:57:09.703Z,30.43
2019-01-11T07:59:38.160Z,23.40
2019-01-11T08:02:06.869Z,27.17
2019-01-11T08:04:54.668Z,29.50
2019-01-11T08:07:24.037Z,34.13
2019-01-11T08:09:52.493Z,29.33
2019-01-11T08:12:20.940Z,29.90
2019-01-11T08:14:49.384Z,31.87
2019-01-11T08:17:17.823Z,29.23
2019-01-11T08:19:52.055Z,30.80
2019-01-11T08:22:22.132Z,26.27
2019-01-11T08:24:52.248Z,29.47
2019-01-11T08:27:21.256Z,28.53
2019-01-11T08:29:49.715Z,27.63
2019-01-11T08:32:18.151Z,27.87
2019-01-11T08:34:46.629Z,25.13
2019-01-11T08:37:15.632Z,29.67
2019-01-11T08:39:44.067Z,27.30
2019-01-11T08:42:12.529Z,28.57
2019-01-11T08:44:41.035Z,29.17
2019-01-11T08:47:09.486Z,27.33
2019-01-11T08:49:37.919Z,26.70
2019-01-11T08:52:06.713Z,28.93
2019-01-11T08:54:54.495Z,23.63
2019-01-11T08:57:23.123Z,22.37
2019-01-11T08:59:51.607Z,24.57
2019-01-11T09:02:20.062Z,27.73
2019-01-11T09:04:48.500Z,26.20
2019-01-11T09:07:16.964Z,24.10
2019-01-11T09:09:45.471Z,29.70
2019-01-11T09:12:13.936Z,25.37
2019-01-11T09:15:01.725Z,25.30
2019-01-11T09:17:59.993Z,25.50
2019-01-11T09:20:28.508Z,24.03
2019-01-11T09:22:56.972Z,26.40
2019-01-11T09:25:45.601Z,24.93
2019-01-11T09:28:14.079Z,20.63
2019-01-11T09:30:42.510Z,22.30
2019-01-11T09:33:30.301Z,22.50
2019-01-11T09:35:59.742Z,22.00
2019-01-11T09:38:28.200Z,20.33
2019-01-11T09:40:56.631Z,22.37
2019-01-11T09:43:25.111Z,21.33
2019-01-11T09:45:53.619Z,22.53
2019-01-11T09:48:22.096Z,19.00
2019-01-11T09:50:50.532Z,22.30
2019-01-11T09:53:25.211Z,22.13
2019-01-11T09:55:53.651Z,21.43
2019-01-11T09:58:22.184Z,20.27
2019-01-11T10:00:50.718Z,22.20
2019-01-11T10:03:19.233Z,20.07
2019-01-11T10:06:07.009Z,20.23
2019-01-11T10:08:35.476Z,25.67
2019-01-11T10:11:04.148Z,23.20
2019-01-11T10:13:32.670Z,23.17
2019-01-11T10:16:01.215Z,25.50
2019-01-11T10:18:29.758Z,24.00
2019-01-11T10:20:58.196Z,21.80
2019-01-11T10:23:26.723Z,22.43
2019-01-11T10:25:55.184Z,17.63
2019-01-11T10:28:23.635Z,25.67
2019-01-11T10:30:52.174Z,21.73
2019-01-11T10:33:40.045Z,23.63
2019-01-11T10:36:08.611Z,26.77
2019-01-11T10:38:43.187Z,23.80
2019-01-11T10:41:11.643Z,24.07
2019-01-11T10:43:40.150Z,24.10
2019-01-11T10:46:10.290Z,26.57
2019-01-11T10:48:38.743Z,23.27
2019-01-11T10:51:07.183Z,31.40
2019-01-11T10:53:35.653Z,29.90
2019-01-11T10:56:04.266Z,24.67
2019-01-11T10:58:32.722Z,26.80
2019-01-11T11:01:01.171Z,25.10
2019-01-11T11:03:29.664Z,25.43
2019-01-11T11:05:58.139Z,36.07
2019-01-11T11:08:26.851Z,27.93
2019-01-11T11:10:55.339Z,30.47
2019-01-11T11:13:23.826Z,30.87
2019-01-11T11:15:52.275Z,27.90
2019-01-11T11:18:20.742Z,33.63
2019-01-11T11:21:08.516Z,33.30
2019-01-11T11:23:36.979Z,36.43
2019-01-11T11:26:05.577Z,41.57
2019-01-11T11:28:34.057Z,42.50
2019-01-11T11:31:03.444Z,42.10
2019-01-11T11:33:31.912Z,41.23
2019-01-11T11:36:00.701Z,41.87
2019-01-11T11:38:29.132Z,42.27
2019-01-11T11:40:57.586Z,47.33
2019-01-11T11:43:26.039Z,42.63
2019-01-11T11:45:54.566Z,35.37
2019-01-11T11:48:23.026Z,40.73
2019-01-11T11:50:51.473Z,41.93
2019-01-11T11:53:20.887Z,50.30
2019-01-11T11:55:49.344Z,40.03
2019-01-11T11:58:17.783Z,33.50
2019-01-11T12:00:46.304Z,40.40
2019-01-11T12:03:14.741Z,41.10
2019-01-11T12:05:43.202Z,42.63
2019-01-11T12:08:11.859Z,48.97
2019-01-11T12:10:40.312Z,41.93
2019-01-11T12:13:08.758Z,37.50
2019-01-11T12:15:37.233Z,43.47
2019-01-11T12:18:05.725Z,47.57
2019-01-11T12:20:34.411Z,41.80
2019-01-11T12:23:03.138Z,44.00
2019-01-11T12:25:31.672Z,52.80
2019-01-11T12:28:00.177Z,50.13
2019-01-11T12:30:28.822Z,47.17
2019-01-11T12:32:57.258Z,50.77
2019-01-11T12:35:25.798Z,39.27
2019-01-11T12:37:54.243Z,45.47
2019-01-11T12:40:22.875Z,46.03
2019-01-11T12:42:51.372Z,43.83
2019-01-11T12:45:19.840Z,50.40
2019-01-11T12:47:48.329Z,45.17
2019-01-11T12:50:21.898Z,45.40
2019-01-11T12:52:50.430Z,53.33
2019-01-11T12:55:18.875Z,49.90
2019-01-11T12:57:54.137Z,48.73
2019-01-11T13:00:23.918Z,56.03
2019-01-11T13:02:52.494Z,44.43
2019-01-11T13:05:21.580Z,50.03
2019-01-11T13:07:50.071Z,46.10
2019-01-11T13:10:19.252Z,46.20
2019-01-11T13:12:47.694Z,46.67
2019-01-11T13:15:20.189Z,43.77
2019-01-11T13:17:48.828Z,51.93
2019-01-11T13:20:19.116Z,50.03
2019-01-11T13:22:48.198Z,44.10
2019-01-11T13:25:22.715Z,47.40
2019-01-11T13:27:51.225Z,58.07
2019-01-11T13:30:20.028Z,47.87
2019-01-11T13:32:48.621Z,49.97
2019-01-11T13:35:17.303Z,45.47
2019-01-11T13:37:45.815Z,52.90
2019-01-11T13:40:17.112Z,59.80
2019-01-11T13:42:45.704Z,49.33
2019-01-11T13:45:14.969Z,51.83
2019-01-11T13:47:43.634Z,56.60
2019-01-11T13:50:32.499Z,56.07
2019-01-11T13:53:01.027Z,50.00
2019-01-11T13:55:29.621Z,52.27
2019-01-11T13:57:58.380Z,49.70
2019-01-11T14:00:27.160Z,49.60
2019-01-11T14:02:55.768Z,47.07
2019-01-11T14:05:24.292Z,48.63
2019-01-11T14:07:53.136Z,42.67
2019-01-11T14:10:21.663Z,40.53
2019-01-11T14:12:50.317Z,46.17
2019-01-11T14:15:19.416Z,36.10
2019-01-11T14:17:47.939Z,36.10
2019-01-11T14:20:16.527Z,37.47
2019-01-11T14:22:45.877Z,31.10
2019-01-11T14:25:17.171Z,33.33
2019-01-11T14:27:45.815Z,30.10
2019-01-11T14:30:17.579Z,37.67
2019-01-11T14:32:48.249Z,34.20
2019-01-11T14:35:17.027Z,31.00
2019-01-11T14:37:45.513Z,36.40
2019-01-11T14:40:16.110Z,33.13
2019-01-11T14:42:45.732Z,34.63
2019-01-11T14:45:16.672Z,33.40
2019-01-11T14:47:45.140Z,35.87
2019-01-11T14:50:15.517Z,26.27
2019-01-11T14:52:44.188Z,31.23
2019-01-11T14:55:12.836Z,31.50
2019-01-11T14:57:41.373Z,38.53
2019-01-11T15:00:12.861Z,43.90
2019-01-11T15:02:41.304Z,30.70
2019-01-11T15:05:11.543Z,30.83
2019-01-11T15:07:39.992Z,32.90
2019-01-11T15:10:11.409Z,30.67
2019-01-11T15:12:40.088Z,35.33
2019-01-11T15:15:09.383Z,32.37
2019-01-11T15:17:37.857Z,39.50
2019-01-11T15:20:09.224Z,33.37
2019-01-11T15:22:37.751Z,33.10
2019-01-11T15:25:11.141Z,34.83
2019-01-11T15:27:39.662Z,33.90
2019-01-11T15:30:11.234Z,37.20
2019-01-11T15:32:39.671Z,37.60
2019-01-11T15:35:09.090Z,32.70
2019-01-11T15:37:37.582Z,36.03
2019-01-11T15:40:11.939Z,31.37
2019-01-11T15:42:59.725Z,30.40
2019-01-11T15:45:28.184Z,38.10
2019-01-11T15:47:56.689Z,35.70
2019-01-11T15:50:46.715Z,40.10
2019-01-11T15:53:15.492Z,35.10
2019-01-11T15:55:43.950Z,31.97
2019-01-11T15:58:12.486Z,29.70
2019-01-11T16:00:43.088Z,39.03
2019-01-11T16:03:11.726Z,30.23
2019-01-11T16:05:40.236Z,24.13
2019-01-11T16:08:08.916Z,19.73
2019-01-11T16:10:39.037Z,27.10
2019-01-11T16:13:10.554Z,30.30
2019-01-11T16:15:42.098Z,24.43
2019-01-11T16:18:16.340Z,32.40
2019-01-11T16:20:45.019Z,23.07
2019-01-11T16:23:14.524Z,24.23
2019-01-11T16:25:43.158Z,21.37
2019-01-11T16:28:11.727Z,30.93
2019-01-11T16:30:40.173Z,27.40
2019-01-11T16:33:08.636Z,30.73
2019-01-11T16:35:49.824Z,24.77
2019-01-11T16:38:18.353Z,32.63
2019-01-11T16:40:46.799Z,27.80
2019-01-11T16:43:15.264Z,26.27
2019-01-11T16:45:43.708Z,22.83
2019-01-11T16:48:12.171Z,25.40
2019-01-11T16:50:40.717Z,25.57
2019-01-11T16:53:09.181Z,20.37
2019-01-11T16:55:37.633Z,21.20
2019-01-11T16:58:06.094Z,20.60
2019-01-11T17:00:36.654Z,21.10
2019-01-11T17:03:05.249Z,18.00
2019-01-11T17:05:33.851Z,16.30
2019-01-11T17:08:02.555Z,19.80
2019-01-11T17:10:31.153Z,18.50
2019-01-11T17:12:59.591Z,12.53
2019-01-11T17:15:28.099Z,12.10
2019-01-11T17:17:56.554Z,14.77
2019-01-11T17:20:25.152Z,12.20
2019-01-11T17:22:53.603Z,20.30
2019-01-11T17:25:22.109Z,20.53
2019-01-11T17:27:51.541Z,15.80
2019-01-11T17:30:20.047Z,20.13
2019-01-11T17:32:48.557Z,17.33
2019-01-11T17:35:17.236Z,19.87
2019-01-11T17:37:45.774Z,15.80
2019-01-11T17:40:14.603Z,13.63
2019-01-11T17:42:43.187Z,18.43
2019-01-11T17:45:12.811Z,16.93
2019-01-11T17:47:41.552Z,30.17
2019-01-11T17:50:14.086Z,15.40
2019-01-11T17:52:42.892Z,14.93
2019-01-11T17:55:12.304Z,14.80
2019-01-11T17:57:41.170Z,19.13
2019-01-11T18:00:12.803Z,17.90
2019-01-11T18:02:41.376Z,13.80
2019-01-11T18:05:11.675Z,20.70
2019-01-11T18:07:40.301Z,16.10
2019-01-11T18:10:10.479Z,12.60
2019-01-11T18:12:39.314Z,16.23
2019-01-11T18:15:14.067Z,18.93
2019-01-11T18:17:42.713Z,21.93
2019-01-11T18:20:14.467Z,13.40
2019-01-11T18:22:42.946Z,15.50
2019-01-11T18:25:11.622Z,17.13
2019-01-11T18:27:40.315Z,19.70
2019-01-11T18:30:12.959Z,17.23
2019-01-11T18:32:41.623Z,15.13
2019-01-11T18:35:10.803Z,15.20
2019-01-11T18:37:39.384Z,17.77
2019-01-11T18:40:10.939Z,17.23
2019-01-11T18:42:39.367Z,17.60
2019-01-11T18:45:08.496Z,20.40
2019-01-11T18:47:36.950Z,25.00
2019-01-11T18:50:08.488Z,17.83
2019-01-11T18:52:36.926Z,24.37
2019-01-11T18:55:06.987Z,22.77
2019-01-11T18:57:35.678Z,20.13
2019-01-11T19:00:07.207Z,17.83
2019-01-11T19:02:35.774Z,18.50
2019-01-11T19:05:06.359Z,20.13
2019-01-11T19:07:34.827Z,24.23
2019-01-11T19:10:05.252Z,23.12
2019-01-11T19:12:43.640Z,19.77
2019-01-11T19:15:15.734Z,27.47
2019-01-11T19:17:44.319Z,19.80
2019-01-11T19:20:24.411Z,28.63
2019-01-11T19:22:54.182Z,23.90
2019-01-11T19:25:22.839Z,17.53
2019-01-11T19:27:51.623Z,21.37
2019-01-11T19:30:22.111Z,21.50
2019-01-11T19:32:50.624Z,24.90
2019-01-11T19:35:19.220Z,21.03
2019-01-11T19:37:51.162Z,23.17
2019-01-11T19:40:19.883Z,18.80
2019-01-11T19:42:48.396Z,22.30
2019-01-11T19:45:17.685Z,16.37
2019-01-11T19:47:46.390Z,23.27
2019-01-11T19:50:19.975Z,22.20
2019-01-11T19:52:50.251Z,23.50
2019-01-11T19:55:19.255Z,22.23
2019-01-11T19:57:47.950Z,20.27
2019-01-11T20:00:25.198Z,19.40
2019-01-11T20:02:55.981Z,21.57
2019-01-11T20:05:24.919Z,22.03
2019-01-11T20:07:53.421Z,23.17
2019-01-11T20:10:24.857Z,20.90
2019-01-11T20:13:12.757Z,21.40
2019-01-11T20:15:41.454Z,18.00
2019-01-11T20:18:10.123Z,71.27
2019-01-11T20:20:44.944Z,20.20
2019-01-11T20:23:13.491Z,20.60
2019-01-11T20:25:41.932Z,16.67
2019-01-11T20:28:10.543Z,23.13
2019-01-11T20:30:41.982Z,17.07
2019-01-11T20:33:10.528Z,23.50
2019-01-11T20:35:39.995Z,17.77
2019-01-11T20:38:08.539Z,17.73
2019-01-11T20:40:37.072Z,21.30
2019-01-11T20:43:05.524Z,20.60
2019-01-11T20:45:37.263Z,13.20
2019-01-11T20:48:05.734Z,17.97
2019-01-11T20:50:34.393Z,16.40
2019-01-11T20:53:03.022Z,15.60
2019-01-11T20:55:31.559Z,17.83
2019-01-11T20:58:00.248Z,15.47
2019-01-11T21:00:31.324Z,14.70
2019-01-11T21:03:01.302Z,18.33
2019-01-11T21:05:30.164Z,20.03
2019-01-11T21:07:58.781Z,17.97
2019-01-11T21:10:34.086Z,15.67
2019-01-11T21:13:02.720Z,19.73
2019-01-11T21:15:31.521Z,18.60
2019-01-11T21:18:00.027Z,20.93
2019-01-11T21:20:28.633Z,22.83
2019-01-11T21:22:57.224Z,16.23
2019-01-11T21:25:26.554Z,23.47
2019-01-11T21:27:55.144Z,19.27
2019-01-11T21:30:26.051Z,21.70
2019-01-11T21:32:54.656Z,19.07
2019-01-11T21:35:23.838Z,22.40
2019-01-11T21:37:52.760Z,16.37
2019-01-11T21:40:22.641Z,22.27
2019-01-11T21:42:51.246Z,22.17
2019-01-11T21:45:19.870Z,27.93
2019-01-11T21:47:48.518Z,19.07
2019-01-11T21:50:19.420Z,19.57
2019-01-11T21:52:47.948Z,15.80
2019-01-11T21:55:16.648Z,18.17
2019-01-11T21:57:46.116Z,21.33
2019-01-11T22:00:20.275Z,22.40
2019-01-11T22:02:49.799Z,19.80
2019-01-11T22:05:18.639Z,18.90
2019-01-11T22:07:47.173Z,15.30
2019-01-11T22:10:17.169Z,22.03
2019-01-11T22:12:47.530Z,21.30
2019-01-11T22:15:18.487Z,25.03
2019-01-11T22:17:47.172Z,21.73
2019-01-11T22:20:19.303Z,19.97
2019-01-11T22:22:47.903Z,17.70
2019-01-11T22:25:17.722Z,20.43
2019-01-11T22:27:46.241Z,21.10
2019-01-11T22:30:19.908Z,21.83
2019-01-11T22:32:54.344Z,20.70
2019-01-11T22:35:22.798Z,26.37
2019-01-11T22:37:51.276Z,27.77
2019-01-11T22:40:22.028Z,24.70
2019-01-11T22:42:52.844Z,23.10
2019-01-11T22:45:21.445Z,25.00
2019-01-11T22:47:49.883Z,25.73
2019-01-11T22:50:18.426Z,21.97
2019-01-11T22:52:47.084Z,28.70
2019-01-11T22:55:17.545Z,23.00
2019-01-11T22:57:46.204Z,33.93
2019-01-11T23:00:36.851Z,28.10
2019-01-11T23:03:08.403Z,29.60
2019-01-11T23:05:38.603Z,32.90
2019-01-11T23:08:26.422Z,21.73
2019-01-11T23:11:00.952Z,21.03
2019-01-11T23:13:29.504Z,24.83
2019-01-11T23:15:58.143Z,28.47
2019-01-11T23:18:26.611Z,23.10
2019-01-11T23:20:55.099Z,15.53
2019-01-11T23:23:23.643Z,17.80
2019-01-11T23:25:52.140Z,22.63
2019-01-11T23:28:20.669Z,22.97
2019-01-11T23:30:49.208Z,20.43
2019-01-11T23:33:17.768Z,16.73
2019-01-11T23:35:47.216Z,19.20
2019-01-11T23:38:17.776Z,21.60
2019-01-11T23:40:46.307Z,21.47
2019-01-11T23:43:14.787Z,13.67
2019-01-11T23:45:43.320Z,19.60
2019-01-11T23:48:11.832Z,22.57
2019-01-11T23:50:40.295Z,18.13
2019-01-11T23:53:08.801Z,13.80
2019-01-11T23:55:37.298Z,20.20
2019-01-11T23:58:25.127Z,14.23
